Time;durP1;ratioP1;P1;durP2;ratioP2;P2;SDS_P1;SDS_P2;PMS_P1;PMS_P2;Temp;Humidity;BMP_temperature;BMP_pressure;BME280_temperature;BME280_humidity;BME280_pressure;Samples;Min_cycle;Max_cycle;Signal;HPM_P1;HPM_P2
2023/09/02 00:00:10;;;;;;;2.70;0.85;;;15.30;1.00;;;;;;5069578;28;20403;-69
2023/09/02 00:02:36;;;;;;;3.15;0.82;;;15.20;1.00;;;;;;5068965;28;20415;-69
2023/09/02 00:05:01;;;;;;;2.50;0.90;;;15.20;1.00;;;;;;5068816;28;20407;-69
2023/09/02 00:07:27;;;;;;;2.03;0.80;;;15.10;1.00;;;;;;5055967;28;20406;-69
2023/09/02 00:09:52;;;;;;;4.15;0.95;;;15.10;1.00;;;;;;5048579;28;20908;-68
2023/09/02 00:12:18;;;;;;;3.23;1.00;;;15.10;1.00;;;;;;5067390;28;20431;-69
2023/09/02 00:14:44;;;;;;;2.20;1.00;;;15.10;1.00;;;;;;5068202;28;20444;-69
2023/09/02 00:17:10;;;;;;;3.42;0.90;;;15.00;1.00;;;;;;5067978;28;20438;-69
2023/09/02 00:19:37;;;;;;;3.10;1.10;;;15.00;1.00;;;;;;5067890;28;20400;-68
2023/09/02 00:22:03;;;;;;;3.22;1.15;;;14.90;1.00;;;;;;5068139;28;20491;-68
2023/09/02 00:24:28;;;;;;;3.88;1.30;;;14.90;1.00;;;;;;5068311;28;20403;-69
2023/09/02 00:26:54;;;;;;;3.67;1.30;;;14.90;1.00;;;;;;5067791;28;20406;-69
2023/09/02 00:29:19;;;;;;;3.33;1.23;;;14.90;1.00;;;;;;5069319;28;20958;-69
2023/09/02 00:31:45;;;;;;;3.83;1.50;;;14.80;1.00;;;;;;5060750;28;20517;-69
2023/09/02 00:34:11;;;;;;;4.13;1.77;;;14.80;1.00;;;;;;5062564;28;20407;-69
2023/09/02 00:36:36;;;;;;;3.42;1.20;;;14.80;1.00;;;;;;5067357;28;20500;-68
2023/09/02 00:39:02;;;;;;;2.83;1.40;;;14.80;1.00;;;;;;5067422;28;20905;-69
2023/09/02 00:41:37;;;;;;;3.80;1.67;;;14.70;1.00;;;;;;5067070;28;20411;-69
2023/09/02 00:44:03;;;;;;;2.80;1.50;;;14.70;1.00;;;;;;5065756;28;20410;-69
2023/09/02 00:46:29;;;;;;;3.63;1.83;;;14.70;1.00;;;;;;5049857;28;20894;-69
2023/09/02 00:48:54;;;;;;;2.97;1.98;;;14.70;1.00;;;;;;5067139;28;20395;-68
2023/09/02 00:51:20;;;;;;;3.70;1.70;;;14.60;1.00;;;;;;5049714;28;20427;-68
2023/09/02 00:53:46;;;;;;;3.20;1.70;;;14.60;1.00;;;;;;5067272;28;20407;-69
2023/09/02 00:56:15;;;;;;;3.93;2.30;;;14.60;1.00;;;;;;5065061;28;20518;-69
2023/09/02 00:58:41;;;;;;;4.38;1.70;;;14.50;1.00;;;;;;5052983;28;20471;-69
2023/09/02 01:01:08;;;;;;;2.40;1.73;;;14.60;1.00;;;;;;5068235;28;20468;-68
2023/09/02 01:03:37;;;;;;;3.17;1.90;;;14.50;1.00;;;;;;5067351;28;20396;-69
2023/09/02 01:06:04;;;;;;;4.10;1.70;;;14.50;1.00;;;;;;5067079;28;20795;-69
2023/09/02 01:08:30;;;;;;;2.88;1.73;;;14.50;1.00;;;;;;5066441;28;20399;-69
2023/09/02 01:10:58;;;;;;;3.45;2.03;;;14.50;1.00;;;;;;5067133;28;20398;-70
2023/09/02 01:13:24;;;;;;;3.60;1.70;;;14.40;1.00;;;;;;5066966;28;20415;-69
2023/09/02 01:15:49;;;;;;;2.63;1.63;;;14.40;1.00;;;;;;5070119;28;20388;-69
2023/09/02 01:18:16;;;;;;;3.00;1.70;;;14.40;1.00;;;;;;5067659;28;20411;-69
2023/09/02 01:21:10;;;;;;;3.50;1.95;;;14.40;1.00;;;;;;5067047;28;20440;-69
2023/09/02 01:24:03;;;;;;;3.90;1.70;;;14.30;1.00;;;;;;5067315;28;20424;-69
2023/09/02 01:27:05;;;;;;;4.68;2.08;;;14.30;1.00;;;;;;5066549;28;20473;-69
2023/09/02 01:29:38;;;;;;;2.65;1.70;;;14.20;1.00;;;;;;5071780;28;20419;-69
2023/09/02 01:32:07;;;;;;;2.92;1.73;;;14.30;1.00;;;;;;5069063;28;20470;-69
2023/09/02 01:34:34;;;;;;;4.20;1.70;;;14.20;1.00;;;;;;5060887;28;20476;-69
2023/09/02 01:37:01;;;;;;;2.90;1.70;;;14.20;1.00;;;;;;5069404;28;20430;-69
2023/09/02 01:39:30;;;;;;;3.47;1.77;;;14.10;1.00;;;;;;5071574;28;20411;-69
2023/09/02 01:41:56;;;;;;;4.53;1.60;;;14.10;1.00;;;;;;5070160;28;20400;-69
2023/09/02 01:44:22;;;;;;;2.58;1.98;;;14.10;1.00;;;;;;5069684;28;20909;-69
2023/09/02 01:46:48;;;;;;;4.45;1.80;;;14.10;1.00;;;;;;5066426;28;20450;-69
2023/09/02 01:49:14;;;;;;;2.85;1.65;;;14.10;1.00;;;;;;5070394;28;20557;-69
2023/09/02 01:51:41;;;;;;;4.23;1.87;;;14.00;1.00;;;;;;5070816;28;20527;-69
2023/09/02 01:54:07;;;;;;;3.45;1.80;;;14.00;1.00;;;;;;5069837;28;20929;-69
2023/09/02 01:56:33;;;;;;;3.63;1.77;;;14.00;1.00;;;;;;5073198;28;20410;-69
2023/09/02 01:58:59;;;;;;;4.70;2.10;;;14.00;1.00;;;;;;5069895;28;20909;-69
2023/09/02 02:01:25;;;;;;;3.13;2.10;;;14.00;1.00;;;;;;5072388;28;20415;-69
2023/09/02 02:04:09;;;;;;;3.40;2.28;;;13.90;1.00;;;;;;5074424;28;20479;-69
2023/09/02 02:06:38;;;;;;;3.63;1.90;;;13.90;1.00;;;;;;5072578;28;20434;-69
2023/09/02 02:09:15;;;;;;;4.32;2.00;;;13.90;1.00;;;;;;5063561;28;20899;-69
2023/09/02 02:11:42;;;;;;;4.65;2.45;;;13.90;1.00;;;;;;5067210;28;20434;-69
2023/09/02 02:14:08;;;;;;;4.90;2.88;;;13.90;1.00;;;;;;5070698;28;20964;-69
2023/09/02 02:16:34;;;;;;;4.70;3.10;;;13.90;1.00;;;;;;5076297;28;20863;-69
2023/09/02 02:19:00;;;;;;;5.35;3.25;;;13.90;1.30;;;;;;5073775;28;20406;-69
2023/09/02 02:21:28;;;;;;;5.05;3.08;;;13.80;2.00;;;;;;5076216;28;20493;-69
2023/09/02 02:23:53;;;;;;;4.72;3.60;;;13.90;2.10;;;;;;5061182;28;21142;-69
2023/09/02 02:26:19;;;;;;;5.05;3.33;;;13.80;1.80;;;;;;5069858;28;20503;-69
2023/09/02 02:28:44;;;;;;;5.43;3.50;;;13.80;1.10;;;;;;5069311;28;20423;-69
2023/09/02 02:31:10;;;;;;;4.53;3.30;;;13.80;1.00;;;;;;5069686;28;20431;-69
2023/09/02 02:33:39;;;;;;;6.10;3.60;;;13.80;1.00;;;;;;5065688;28;20495;-69
2023/09/02 02:36:05;;;;;;;4.75;3.42;;;13.80;2.40;;;;;;5078358;28;20543;-69
2023/09/02 02:38:31;;;;;;;4.38;3.50;;;13.70;3.00;;;;;;5074280;28;20415;-69
2023/09/02 02:40:57;;;;;;;5.50;3.42;;;13.70;3.10;;;;;;5078467;28;20406;-69
2023/09/02 02:43:26;;;;;;;5.20;3.50;;;13.70;3.50;;;;;;5074179;28;20407;-69
2023/09/02 02:45:53;;;;;;;5.78;3.58;;;13.70;4.40;;;;;;5077780;28;20781;-69
2023/09/02 02:48:22;;;;;;;5.78;3.45;;;13.70;5.20;;;;;;5074208;28;20403;-69
2023/09/02 02:50:47;;;;;;;4.95;3.67;;;13.70;5.40;;;;;;5069182;28;21258;-69
2023/09/02 02:53:13;;;;;;;6.35;3.30;;;13.70;4.90;;;;;;5051937;28;20435;-69
2023/09/02 02:55:39;;;;;;;5.43;3.80;;;13.60;5.00;;;;;;5073911;28;20399;-69
2023/09/02 02:58:04;;;;;;;6.63;3.90;;;13.60;5.10;;;;;;5073071;28;20436;-69
2023/09/02 03:00:30;;;;;;;4.53;3.50;;;13.60;5.20;;;;;;5071751;28;20523;-69
2023/09/02 03:02:55;;;;;;;5.55;4.00;;;13.60;5.10;;;;;;5054198;28;20448;-69
2023/09/02 03:05:21;;;;;;;6.97;4.50;;;13.60;5.60;;;;;;5056344;28;20468;-69
2023/09/02 03:07:48;;;;;;;5.63;4.45;;;13.50;5.30;;;;;;5072083;28;20482;-69
2023/09/02 03:10:13;;;;;;;7.00;4.80;;;13.50;6.50;;;;;;5074536;28;20398;-69
2023/09/02 03:12:39;;;;;;;7.43;4.83;;;13.50;8.40;;;;;;5071636;28;20434;-70
2023/09/02 03:15:05;;;;;;;6.45;4.50;;;13.40;9.30;;;;;;5073877;28;20400;-69
2023/09/02 03:17:31;;;;;;;7.35;4.25;;;13.50;10.80;;;;;;5071731;28;20476;-69
2023/09/02 03:19:56;;;;;;;6.38;4.40;;;13.50;12.30;;;;;;5067988;28;21545;-69
2023/09/02 03:22:22;;;;;;;6.33;4.50;;;13.40;12.60;;;;;;5069002;28;20497;-69
2023/09/02 03:24:54;;;;;;;6.68;4.60;;;13.40;12.90;;;;;;5071900;28;20405;-69
2023/09/02 03:27:21;;;;;;;7.07;4.75;;;13.40;13.70;;;;;;5065293;28;20399;-69
2023/09/02 03:29:49;;;;;;;6.25;4.60;;;13.40;14.10;;;;;;5074457;28;20403;-69
2023/09/02 03:32:15;;;;;;;6.28;4.30;;;13.40;14.00;;;;;;5071975;28;20431;-69
2023/09/02 03:34:41;;;;;;;5.70;4.17;;;13.40;14.90;;;;;;5074526;28;20517;-69
2023/09/02 03:37:06;;;;;;;7.22;5.10;;;13.30;16.20;;;;;;5068696;28;20494;-69
2023/09/02 03:39:33;;;;;;;6.77;5.17;;;13.30;16.40;;;;;;5057246;28;20406;-69
2023/09/02 03:41:59;;;;;;;7.55;4.97;;;13.30;18.00;;;;;;5072290;28;20423;-69
2023/09/02 03:44:25;;;;;;;7.05;4.85;;;13.30;19.10;;;;;;5075139;28;20766;-69
2023/09/02 03:46:51;;;;;;;6.20;4.18;;;13.40;20.40;;;;;;5071698;28;20395;-69
2023/09/02 03:49:17;;;;;;;7.37;4.80;;;13.40;20.00;;;;;;5075324;28;20407;-69
2023/09/02 03:51:42;;;;;;;6.93;4.63;;;13.30;20.40;;;;;;5071696;28;20505;-69
2023/09/02 03:54:09;;;;;;;5.47;4.20;;;13.40;20.00;;;;;;5074611;28;20494;-69
2023/09/02 03:56:36;;;;;;;7.70;4.45;;;13.30;19.70;;;;;;5071966;28;20406;-69
2023/09/02 03:59:03;;;;;;;6.50;4.40;;;13.30;19.90;;;;;;5068936;28;20439;-69
2023/09/02 04:01:30;;;;;;;6.10;4.32;;;13.30;20.40;;;;;;5068229;28;20508;-69
2023/09/02 04:03:56;;;;;;;7.40;4.82;;;13.30;20.10;;;;;;5068516;28;20395;-69
2023/09/02 04:06:25;;;;;;;6.47;4.50;;;13.30;20.60;;;;;;5068922;28;20774;-69
2023/09/02 04:08:51;;;;;;;7.25;4.80;;;13.30;21.30;;;;;;5067941;28;20404;-69
2023/09/02 04:11:16;;;;;;;7.78;5.07;;;13.30;20.90;;;;;;5059538;28;20471;-69
2023/09/02 04:13:42;;;;;;;7.78;5.05;;;13.30;21.10;;;;;;5068246;28;20469;-69
2023/09/02 04:16:10;;;;;;;7.40;4.70;;;13.30;21.10;;;;;;5067063;28;20416;-68
2023/09/02 04:18:36;;;;;;;6.78;4.82;;;13.30;21.60;;;;;;5033961;28;20415;-69
2023/09/02 04:21:03;;;;;;;5.80;4.82;;;13.30;22.20;;;;;;5072047;28;20482;-68
2023/09/02 04:23:30;;;;;;;7.60;4.78;;;13.30;21.60;;;;;;5068237;28;20493;-68
2023/09/02 04:25:57;;;;;;;7.03;4.45;;;13.30;21.70;;;;;;5068423;28;20989;-69
2023/09/02 04:28:23;;;;;;;5.33;4.33;;;13.30;22.00;;;;;;5068279;28;20411;-69
2023/09/02 04:30:49;;;;;;;6.20;4.50;;;13.30;21.60;;;;;;5070726;28;20453;-68
2023/09/02 04:33:16;;;;;;;6.85;4.78;;;13.30;20.60;;;;;;5057963;28;20491;-69
2023/09/02 04:35:43;;;;;;;7.15;4.57;;;13.30;20.90;;;;;;5074398;28;20819;-69
2023/09/02 04:38:10;;;;;;;7.83;5.23;;;13.20;20.80;;;;;;5064335;28;20489;-69
2023/09/02 04:40:40;;;;;;;6.47;5.03;;;13.20;21.20;;;;;;5064239;28;20403;-69
2023/09/02 04:43:08;;;;;;;7.43;5.07;;;13.20;21.20;;;;;;5067731;28;20402;-69
2023/09/02 04:45:39;;;;;;;6.65;4.45;;;13.20;21.50;;;;;;5076537;28;20402;-69
2023/09/02 04:48:05;;;;;;;7.47;4.95;;;13.20;22.00;;;;;;5073726;28;20426;-69
2023/09/02 04:50:32;;;;;;;6.70;4.95;;;13.10;22.40;;;;;;5077385;28;20393;-69
2023/09/02 04:52:58;;;;;;;6.57;4.88;;;13.10;22.50;;;;;;5062250;28;20422;-69
2023/09/02 04:55:25;;;;;;;8.52;5.05;;;13.10;23.40;;;;;;5070337;28;20435;-69
2023/09/02 04:57:52;;;;;;;6.80;5.03;;;13.10;24.20;;;;;;5073509;28;20407;-69
2023/09/02 05:00:18;;;;;;;6.75;5.03;;;13.10;24.90;;;;;;5067207;28;20406;-69
2023/09/02 05:02:45;;;;;;;7.45;5.20;;;13.10;24.80;;;;;;5070009;28;20542;-69
2023/09/02 05:05:15;;;;;;;8.07;5.03;;;13.10;25.20;;;;;;5073154;28;20410;-69
2023/09/02 05:07:41;;;;;;;8.80;5.72;;;13.20;25.90;;;;;;5070615;28;20399;-69
2023/09/02 05:10:07;;;;;;;7.55;5.45;;;13.20;27.30;;;;;;5073753;28;20481;-69
2023/09/02 05:12:33;;;;;;;7.43;5.47;;;13.20;28.50;;;;;;5070658;28;20472;-69
2023/09/02 05:15:00;;;;;;;7.80;5.72;;;13.20;30.00;;;;;;5066733;28;20486;-69
2023/09/02 05:17:26;;;;;;;7.85;5.60;;;13.20;30.70;;;;;;5067538;28;20402;-69
2023/09/02 05:19:51;;;;;;;8.48;5.72;;;13.30;32.30;;;;;;5067227;28;20400;-69
2023/09/02 05:22:17;;;;;;;7.77;5.40;;;13.30;33.20;;;;;;5067635;28;20400;-69
2023/09/02 05:24:42;;;;;;;7.55;5.30;;;13.30;34.40;;;;;;5067591;28;20784;-69
2023/09/02 05:27:08;;;;;;;7.70;5.60;;;13.40;35.00;;;;;;5060193;28;20393;-69
2023/09/02 05:29:34;;;;;;;8.57;5.60;;;13.40;35.60;;;;;;5065759;28;20755;-69
2023/09/02 05:31:59;;;;;;;7.75;5.53;;;13.40;36.40;;;;;;5071402;28;20909;-69
2023/09/02 05:34:25;;;;;;;7.57;5.40;;;13.50;36.50;;;;;;5071252;28;20400;-69
2023/09/02 05:36:51;;;;;;;7.43;5.10;;;13.50;37.10;;;;;;5052120;28;20774;-69
2023/09/02 05:39:16;;;;;;;8.37;5.70;;;13.50;37.40;;;;;;5071090;28;20419;-69
2023/09/02 05:41:45;;;;;;;9.18;5.88;;;13.60;38.00;;;;;;5065421;28;20397;-69
2023/09/02 05:44:10;;;;;;;8.88;5.90;;;13.70;38.90;;;;;;5069729;28;20450;-69
2023/09/02 05:46:36;;;;;;;7.63;5.88;;;13.70;40.00;;;;;;5053671;28;20432;-69
2023/09/02 05:49:02;;;;;;;8.00;5.97;;;13.80;41.40;;;;;;5071435;28;20454;-69
2023/09/02 05:51:28;;;;;;;8.68;5.60;;;13.90;43.10;;;;;;5064130;28;20481;-68
2023/09/02 05:53:54;;;;;;;9.68;6.32;;;13.90;44.30;;;;;;5071146;28;20402;-68
2023/09/02 05:56:20;;;;;;;9.13;6.82;;;14.00;44.40;;;;;;5070641;28;20395;-69
2023/09/02 05:58:45;;;;;;;10.20;7.00;;;14.10;45.90;;;;;;5070931;28;20408;-68
2023/09/02 06:01:11;;;;;;;8.57;6.30;;;14.20;47.10;;;;;;5072980;28;20955;-68
2023/09/02 06:03:37;;;;;;;9.73;6.53;;;14.20;47.90;;;;;;5074003;28;20402;-69
2023/09/02 06:06:09;;;;;;;10.95;6.93;;;14.30;48.40;;;;;;5055662;28;20777;-69
2023/09/02 06:08:35;;;;;;;9.80;6.65;;;14.30;49.20;;;;;;5073475;28;20403;-69
2023/09/02 06:11:00;;;;;;;12.13;6.70;;;14.40;48.90;;;;;;5070238;28;20773;-69
2023/09/02 06:13:26;;;;;;;9.33;6.30;;;14.40;48.90;;;;;;5073576;28;20429;-69
2023/09/02 06:15:56;;;;;;;9.57;6.55;;;14.50;49.70;;;;;;5070279;28;20833;-69
2023/09/02 06:18:21;;;;;;;9.07;7.17;;;14.50;50.30;;;;;;5079173;28;20410;-69
2023/09/02 06:20:47;;;;;;;10.52;6.90;;;14.60;51.20;;;;;;5074676;28;20400;-69
2023/09/02 06:23:13;;;;;;;9.90;7.33;;;14.70;51.10;;;;;;5077962;28;20943;-69
2023/09/02 06:25:38;;;;;;;12.02;8.18;;;14.70;51.70;;;;;;5066217;28;20492;-69
2023/09/02 06:28:04;;;;;;;12.30;8.63;;;14.80;52.80;;;;;;5078120;28;20398;-68
2023/09/02 06:30:30;;;;;;;14.30;9.70;;;14.80;54.20;;;;;;5073609;28;20404;-69
2023/09/02 06:32:55;;;;;;;12.93;9.30;;;14.90;54.50;;;;;;5071921;28;20771;-69
2023/09/02 06:35:21;;;;;;;12.73;8.45;;;15.00;54.90;;;;;;5056619;28;20412;-69
2023/09/02 06:37:48;;;;;;;12.53;8.60;;;15.00;55.20;;;;;;5067617;28;20395;-69
2023/09/02 06:40:13;;;;;;;13.50;9.13;;;15.10;54.80;;;;;;5069217;28;20400;-69
2023/09/02 06:42:39;;;;;;;13.13;9.00;;;15.20;54.30;;;;;;5076227;28;20980;-69
2023/09/02 06:45:05;;;;;;;12.80;8.60;;;15.30;54.10;;;;;;5068110;28;20396;-69
2023/09/02 06:47:31;;;;;;;11.38;8.10;;;15.30;53.10;;;;;;5067556;28;20402;-69
2023/09/02 06:49:56;;;;;;;12.30;7.40;;;15.40;51.30;;;;;;5069036;28;20400;-69
2023/09/02 06:52:22;;;;;;;10.82;6.97;;;15.40;48.90;;;;;;5076876;28;20761;-69
2023/09/02 06:54:50;;;;;;;9.80;6.70;;;15.50;46.00;;;;;;5072760;28;20398;-69
2023/09/02 06:57:16;;;;;;;10.63;6.68;;;15.50;44.50;;;;;;5069552;28;20413;-69
2023/09/02 06:59:42;;;;;;;10.20;7.20;;;15.60;43.70;;;;;;5068932;28;20396;-69
2023/09/02 07:02:08;;;;;;;9.38;6.57;;;15.70;42.90;;;;;;5065539;28;20392;-69
2023/09/02 07:04:33;;;;;;;9.07;5.72;;;15.80;41.30;;;;;;5043533;28;20430;-70
2023/09/02 07:06:59;;;;;;;8.43;5.57;;;15.90;38.10;;;;;;5060637;28;20400;-69
2023/09/02 07:09:25;;;;;;;8.77;5.38;;;15.90;34.20;;;;;;5055340;28;20890;-70
2023/09/02 07:11:52;;;;;;;8.17;4.87;;;16.00;30.00;;;;;;5065993;28;20419;-69
2023/09/02 07:14:18;;;;;;;6.95;4.13;;;16.10;26.70;;;;;;5072312;28;20823;-70
2023/09/02 07:16:44;;;;;;;6.67;3.73;;;16.10;20.50;;;;;;5066750;28;20494;-70
2023/09/02 07:19:09;;;;;;;6.72;3.72;;;16.20;15.30;;;;;;5064458;28;20496;-69
2023/09/02 07:21:35;;;;;;;5.40;3.20;;;16.30;11.60;;;;;;5060077;28;20412;-70
2023/09/02 07:24:00;;;;;;;6.15;3.20;;;16.40;7.20;;;;;;5067360;28;20507;-70
2023/09/02 07:26:28;;;;;;;6.07;2.47;;;16.50;3.50;;;;;;5082136;28;20747;-71
2023/09/02 07:28:54;;;;;;;4.93;1.70;;;16.50;1.10;;;;;;5070727;28;20444;-69
2023/09/02 07:31:20;;;;;;;3.63;1.67;;;16.50;1.00;;;;;;5065276;28;20467;-69
2023/09/02 07:33:46;;;;;;;3.63;1.70;;;16.60;1.00;;;;;;5048178;28;20411;-69
2023/09/02 07:36:13;;;;;;;7.80;1.92;;;16.70;1.00;;;;;;5063238;28;20844;-69
2023/09/02 07:38:40;;;;;;;3.50;1.23;;;16.80;1.00;;;;;;5064127;28;20411;-69
2023/09/02 07:41:06;;;;;;;4.43;1.40;;;16.80;1.00;;;;;;5066077;28;20396;-69
2023/09/02 07:43:32;;;;;;;3.72;1.40;;;16.80;1.00;;;;;;5074792;28;20422;-68
2023/09/02 07:45:58;;;;;;;4.27;1.37;;;16.90;1.00;;;;;;5078028;28;20431;-69
2023/09/02 07:48:24;;;;;;;2.72;0.80;;;17.00;1.00;;;;;;5067994;28;20473;-69
2023/09/02 07:50:50;;;;;;;3.13;1.20;;;17.10;1.00;;;;;;5065941;28;20797;-70
2023/09/02 07:53:16;;;;;;;3.95;1.05;;;17.10;1.00;;;;;;5040913;28;20438;-68
2023/09/02 07:55:41;;;;;;;3.33;0.97;;;17.20;1.00;;;;;;5067425;28;20894;-68
2023/09/02 07:58:07;;;;;;;5.50;1.10;;;17.20;1.00;;;;;;5074068;28;20398;-69
2023/09/02 08:00:33;;;;;;;3.97;1.10;;;17.30;1.00;;;;;;5068846;28;20490;-70
2023/09/02 08:02:59;;;;;;;3.10;0.80;;;17.40;1.00;;;;;;5080897;28;20402;-70
2023/09/02 08:05:25;;;;;;;3.43;0.90;;;17.40;1.00;;;;;;5077800;28;20404;-69
2023/09/02 08:07:51;;;;;;;2.97;0.73;;;17.50;1.00;;;;;;5076946;28;20439;-70
2023/09/02 08:10:16;;;;;;;3.17;0.90;;;17.50;1.00;;;;;;5067589;28;20430;-69
2023/09/02 08:12:42;;;;;;;4.05;1.00;;;17.60;1.00;;;;;;5069805;28;20433;-69
2023/09/02 08:15:10;;;;;;;2.78;0.90;;;17.60;1.00;;;;;;5070749;28;20411;-70
2023/09/02 08:17:37;;;;;;;4.38;1.08;;;17.70;1.00;;;;;;5064846;28;20461;-70
2023/09/02 08:20:04;;;;;;;3.92;1.20;;;17.80;1.00;;;;;;5068425;28;20426;-67
2023/09/02 08:22:29;;;;;;;4.20;1.10;;;17.80;1.00;;;;;;5078295;28;20491;-69
2023/09/02 08:24:55;;;;;;;3.10;1.02;;;17.90;1.00;;;;;;5074731;28;20479;-70
2023/09/02 08:27:21;;;;;;;3.88;1.35;;;18.00;1.00;;;;;;5070859;28;20982;-70
2023/09/02 08:29:47;;;;;;;3.60;1.40;;;18.00;1.00;;;;;;5073053;28;20407;-70
2023/09/02 08:32:13;;;;;;;5.85;2.13;;;18.10;1.00;;;;;;5073128;28;20467;-70
2023/09/02 08:34:38;;;;;;;6.53;1.42;;;18.20;99.90;;;;;;5074710;28;20913;-70
2023/09/02 08:37:04;;;;;;;3.77;1.50;;;18.30;99.90;;;;;;5067980;28;20415;-70
2023/09/02 08:39:30;;;;;;;4.13;1.48;;;18.30;99.90;;;;;;5073458;28;20457;-70
2023/09/02 08:41:56;;;;;;;4.33;1.50;;;18.40;99.90;;;;;;5072655;28;20814;-70
2023/09/02 08:44:25;;;;;;;4.18;1.38;;;18.50;99.90;;;;;;5073652;28;20408;-70
2023/09/02 08:46:52;;;;;;;5.40;1.80;;;18.60;99.90;;;;;;5066582;28;20408;-70
2023/09/02 08:49:19;;;;;;;4.65;2.05;;;18.70;99.90;;;;;;5052640;28;20420;-71
2023/09/02 08:51:46;;;;;;;4.80;1.80;;;18.80;99.90;;;;;;5064739;28;20427;-71
2023/09/02 08:54:13;;;;;;;3.97;1.88;;;18.80;99.90;;;;;;5067285;28;20435;-70
2023/09/02 08:56:42;;;;;;;4.88;1.67;;;18.90;99.90;;;;;;5064785;28;20410;-71
2023/09/02 08:59:12;;;;;;;4.97;1.48;;;19.00;99.90;;;;;;5044686;28;20486;-70
2023/09/02 09:01:42;;;;;;;4.63;1.60;;;19.00;99.90;;;;;;5068297;28;20403;-70
2023/09/02 09:04:10;;;;;;;4.20;1.55;;;19.10;99.90;;;;;;5022844;28;20850;-70
2023/09/02 09:06:37;;;;;;;5.60;1.70;;;19.20;99.90;;;;;;5070200;28;20916;-70
2023/09/02 09:09:03;;;;;;;4.53;1.70;;;19.30;99.90;;;;;;5070546;28;20821;-70
2023/09/02 09:11:34;;;;;;;3.97;1.52;;;19.40;99.90;;;;;;5070524;28;20476;-70
2023/09/02 09:14:02;;;;;;;4.43;1.90;;;19.40;99.90;;;;;;5072594;28;20399;-70
2023/09/02 09:16:31;;;;;;;3.77;1.30;;;19.60;95.80;;;;;;5072360;28;20484;-70
2023/09/02 09:19:01;;;;;;;4.83;1.80;;;19.70;40.90;;;;;;5072691;28;20816;-70
2023/09/02 09:21:27;;;;;;;3.97;2.03;;;19.80;99.90;;;;;;5072278;28;20436;-70
2023/09/02 09:23:53;;;;;;;5.30;2.23;;;20.50;99.90;;;;;;5072832;28;20435;-70
2023/09/02 09:26:19;;;;;;;6.80;2.07;;;21.20;1.00;;;;;;5054724;28;20410;-70
2023/09/02 09:28:52;;;;;;;2.78;1.60;;;21.90;99.90;;;;;;5070290;28;20399;-71
2023/09/02 09:31:19;;;;;;;4.60;2.03;;;22.70;76.20;;;;;;5071132;28;20844;-71
2023/09/02 09:34:01;;;;;;;4.18;1.50;;;23.30;99.90;;;;;;5053549;28;20412;-70
2023/09/02 09:36:29;;;;;;;4.47;1.70;;;23.80;99.90;;;;;;5071905;28;20400;-71
2023/09/02 09:38:55;;;;;;;5.18;2.28;;;24.30;38.00;;;;;;5071153;28;20431;-71
2023/09/02 09:41:22;;;;;;;4.38;2.20;;;24.60;99.90;;;;;;5071917;28;20404;-71
2023/09/02 09:44:09;;;;;;;5.13;2.00;;;24.90;99.90;;;;;;5071427;28;20489;-71
2023/09/02 09:46:48;;;;;;;4.22;2.10;;;25.10;99.90;;;;;;5070346;28;20925;-71
2023/09/02 09:49:23;;;;;;;4.53;2.22;;;25.40;47.80;;;;;;5071070;28;20408;-71
2023/09/02 09:52:09;;;;;;;5.18;1.92;;;25.80;7.60;;;;;;5070997;28;20416;-71
2023/09/02 09:54:39;;;;;;;4.35;1.90;;;26.20;1.00;;;;;;5070431;28;20454;-71
2023/09/02 09:57:06;;;;;;;4.65;1.50;;;26.60;1.00;;;;;;5072070;28;20396;-71
2023/09/02 09:59:34;;;;;;;4.78;1.30;;;26.90;1.00;;;;;;5070493;28;20411;-71
2023/09/02 10:02:01;;;;;;;3.83;1.90;;;27.00;1.00;;;;;;5059780;28;20408;-71
2023/09/02 10:04:28;;;;;;;4.60;2.30;;;27.30;99.90;;;;;;5072118;28;20776;-71
2023/09/02 10:06:59;;;;;;;5.78;2.25;;;27.50;99.90;;;;;;5071041;28;20481;-71
2023/09/02 10:09:41;;;;;;;5.80;2.00;;;27.80;99.90;;;;;;5070506;28;20400;-71
2023/09/02 10:12:15;;;;;;;4.60;1.90;;;28.10;99.90;;;;;;5069463;28;20431;-71
2023/09/02 10:14:42;;;;;;;3.72;2.05;;;28.30;99.90;;;;;;5064465;28;20402;-71
2023/09/02 10:17:11;;;;;;;4.20;2.25;;;28.60;99.90;;;;;;5062856;28;20408;-72
2023/09/02 10:19:37;;;;;;;4.53;2.08;;;28.70;99.90;;;;;;5057706;28;20395;-71
2023/09/02 10:22:03;;;;;;;4.80;2.22;;;28.70;99.90;;;;;;5069720;28;21126;-71
2023/09/02 10:25:05;;;;;;;5.43;2.70;;;28.70;99.90;;;;;;5064967;28;21203;-71
2023/09/02 10:27:37;;;;;;;5.30;2.20;;;28.70;99.90;;;;;;5032174;28;20536;-71
2023/09/02 10:30:08;;;;;;;4.15;2.45;;;28.60;99.90;;;;;;5063307;28;20472;-70
2023/09/02 10:32:41;;;;;;;5.28;1.90;;;28.90;99.90;;;;;;5070493;28;20431;-71
2023/09/02 10:35:34;;;;;;;3.45;1.80;;;29.00;99.90;;;;;;5073538;28;20406;-71
2023/09/02 10:38:05;;;;;;;5.47;1.90;;;29.10;99.90;;;;;;5060147;28;20411;-71
2023/09/02 10:40:39;;;;;;;6.32;2.33;;;29.20;99.90;;;;;;5075651;28;20401;-71
2023/09/02 10:43:06;;;;;;;5.10;2.15;;;29.10;99.90;;;;;;5073192;28;20407;-71
2023/09/02 10:45:32;;;;;;;4.63;2.10;;;29.00;99.90;;;;;;5057357;28;20427;-71
2023/09/02 10:47:59;;;;;;;4.68;2.10;;;29.00;99.90;;;;;;5069171;28;20901;-71
2023/09/02 10:50:25;;;;;;;6.20;2.95;;;29.20;99.90;;;;;;5069998;28;20448;-71
2023/09/02 10:52:51;;;;;;;3.70;2.17;;;29.40;99.90;;;;;;5057622;28;20425;-71
2023/09/02 10:55:17;;;;;;;4.10;2.05;;;29.40;99.90;;;;;;5069103;28;20404;-71
2023/09/02 10:57:57;;;;;;;4.60;1.60;;;29.30;99.90;;;;;;5070301;28;20404;-71
2023/09/02 11:00:29;;;;;;;5.80;1.95;;;29.40;99.90;;;;;;5070140;28;20424;-71
2023/09/02 11:02:59;;;;;;;4.77;1.93;;;29.70;99.90;;;;;;5069692;28;20475;-71
2023/09/02 11:05:29;;;;;;;4.95;2.25;;;29.80;99.90;;;;;;5069542;28;20476;-69
2023/09/02 11:07:55;;;;;;;4.93;2.08;;;29.60;99.90;;;;;;5067289;28;20423;-71
2023/09/02 11:10:22;;;;;;;6.70;2.17;;;29.70;99.90;;;;;;5050998;28;20399;-67
2023/09/02 11:12:59;;;;;;;4.25;1.95;;;29.80;99.90;;;;;;5051607;28;20804;-69
2023/09/02 11:15:26;;;;;;;3.63;1.70;;;29.70;99.90;;;;;;5066157;28;20426;-69
2023/09/02 11:17:52;;;;;;;4.78;1.75;;;29.70;99.90;;;;;;5062669;28;20743;-70
2023/09/02 11:20:20;;;;;;;3.23;1.70;;;29.80;99.90;;;;;;5074396;28;20407;-70
2023/09/02 11:23:01;;;;;;;5.00;1.80;;;30.00;99.90;;;;;;5067474;28;20469;-69
2023/09/02 11:25:29;;;;;;;3.45;1.40;;;29.90;99.90;;;;;;5067024;28;20404;-70
2023/09/02 11:27:55;;;;;;;3.92;1.38;;;29.90;99.90;;;;;;5067516;28;20407;-70
2023/09/02 11:30:23;;;;;;;4.17;1.30;;;29.90;99.90;;;;;;5066704;28;20800;-69
2023/09/02 11:32:49;;;;;;;2.93;1.20;;;30.00;99.90;;;;;;5065203;28;20435;-70
2023/09/02 11:35:22;;;;;;;4.05;1.30;;;30.00;99.90;;;;;;5067092;28;20408;-70
2023/09/02 11:37:48;;;;;;;5.05;1.55;;;30.00;99.90;;;;;;5067048;28;20528;-70
2023/09/02 11:40:14;;;;;;;2.85;0.82;;;30.00;99.90;;;;;;5072564;28;20929;-69
2023/09/02 11:42:59;;;;;;;3.55;1.17;;;30.00;99.90;;;;;;5067217;28;20408;-70
2023/09/02 11:45:30;;;;;;;3.97;1.38;;;29.90;99.90;;;;;;5066919;28;20404;-70
2023/09/02 11:47:56;;;;;;;3.80;0.95;;;29.90;99.90;;;;;;5067361;28;20762;-70
2023/09/02 11:50:22;;;;;;;3.30;1.30;;;29.70;99.90;;;;;;5066498;28;20419;-69
2023/09/02 11:52:56;;;;;;;3.00;1.27;;;29.60;99.90;;;;;;5073376;28;20454;-70
2023/09/02 11:55:22;;;;;;;3.67;1.00;;;29.50;99.90;;;;;;5056147;28;20395;-70
2023/09/02 11:57:48;;;;;;;3.65;0.95;;;29.40;99.90;;;;;;5080293;28;20787;-70
2023/09/02 12:00:25;;;;;;;2.80;0.80;;;29.40;99.90;;;;;;5066169;28;20408;-70
2023/09/02 12:02:53;;;;;;;3.03;0.70;;;29.40;99.90;;;;;;5065826;28;20488;-70
2023/09/02 12:05:19;;;;;;;3.85;0.50;;;29.60;99.90;;;;;;5064306;28;20411;-70
2023/09/02 12:07:46;;;;;;;2.23;0.50;;;29.60;99.90;;;;;;5072291;28;20406;-70
2023/09/02 12:10:16;;;;;;;3.00;0.50;;;29.50;99.90;;;;;;5075595;28;20435;-70
2023/09/02 12:12:49;;;;;;;2.03;0.40;;;29.30;99.90;;;;;;5068637;28;21018;-70
2023/09/02 12:15:16;;;;;;;2.35;0.47;;;29.20;99.90;;;;;;5074534;28;20407;-67
2023/09/02 12:17:43;;;;;;;2.10;0.40;;;29.30;99.90;;;;;;5073813;28;20418;-70
2023/09/02 12:20:13;;;;;;;2.70;0.50;;;29.20;99.90;;;;;;5071593;28;20469;-70
2023/09/02 12:22:41;;;;;;;0.88;0.30;;;29.20;99.90;;;;;;5069714;28;20522;-69
2023/09/02 12:25:21;;;;;;;1.33;0.30;;;29.20;99.90;;;;;;5074428;28;21146;-69
2023/09/02 12:27:47;;;;;;;1.40;0.40;;;29.20;99.90;;;;;;5068872;28;20423;-70
2023/09/02 12:30:23;;;;;;;2.10;0.32;;;29.10;99.90;;;;;;5067597;28;20418;-70
2023/09/02 12:32:49;;;;;;;1.40;0.32;;;29.00;99.90;;;;;;5053396;28;20436;-70
2023/09/02 12:35:15;;;;;;;1.38;0.30;;;29.10;99.90;;;;;;5062646;28;20411;-70
2023/09/02 12:37:40;;;;;;;2.65;0.50;;;29.40;99.90;;;;;;5075914;28;20396;-70
2023/09/02 12:40:14;;;;;;;1.73;0.30;;;29.60;99.90;;;;;;5078537;28;20476;-70
2023/09/02 12:42:41;;;;;;;2.73;0.50;;;29.80;99.90;;;;;;5058194;28;20476;-70
2023/09/02 12:45:08;;;;;;;1.45;0.35;;;30.00;99.90;;;;;;5051243;28;21140;-70
2023/09/02 12:47:35;;;;;;;2.05;0.30;;;30.10;99.90;;;;;;5056452;28;20421;-70
2023/09/02 12:50:02;;;;;;;0.87;0.30;;;30.30;99.90;;;;;;5064473;28;20412;-69
2023/09/02 12:52:29;;;;;;;2.35;0.45;;;30.10;99.90;;;;;;5069769;28;20428;-69